KRVS/RVS METAR and TAF weather

Enter ICAO airport designator
Station Type Date Time Source
KRVS METAR 2020/04/05 05:53 UTC NOAA

KRVS 050553Z AUTO 00000KT 9SM OVC008 07/04 A3010 RMK AO2 CIG 007V011 SLP199 T00670044 10067 20061 400670028 51002


Station Type Date Time Source
KRVS Decoded METAR 2020/04/05 05:53 UTC NOAA

TULSA JONES JR. AIRPORT, OK, United States (KRVS) 36-03N 095-59W 200M
Apr 05, 2020 - 01:53 AM EDT / 2020.04.05 0553 UTC
Wind: Calm:0
Visibility: 9 mile(s):0
Sky conditions: overcast
Temperature: 44.1 F (6.7 C)
Dew Point: 39.9 F (4.4 C)
Relative Humidity: 85%
Pressure (altimeter): 30.1 in. Hg (1019 hPa)
Pressure tendency: 0.01 inches (0.2 hPa) higher than three hours ago
ob: KRVS 050553Z AUTO 00000KT 9SM OVC008 07/04 A3010 RMK AO2 CIG 007V011 SLP199 T00670044 10067 20061 400670028 51002
cycle: 6

Station Type Date Time Source
KRVS TAF 2020/04/05 06:36 UTC NOAA

TAF KRVS 050533Z 0506/0606 00000KT 3SM BR OVC004
FM051600 16008KT P6SM OVC015

Example: see airport list